sensor_id;sensor_type;location;lat;lon;timestamp;temperature;humidity
22996;DHT22;11664;49.774;8.650;2024-02-26T00:02:00;9.80;99.90
22996;DHT22;11664;49.774;8.650;2024-02-26T00:04:32;9.70;99.90
22996;DHT22;11664;49.774;8.650;2024-02-26T00:07:01;9.70;99.90
22996;DHT22;11664;49.774;8.650;2024-02-26T00:09:47;9.70;99.90
22996;DHT22;11664;49.774;8.650;2024-02-26T00:12:12;9.70;99.90
22996;DHT22;11664;49.774;8.650;2024-02-26T00:14:43;9.60;99.90
22996;DHT22;11664;49.774;8.650;2024-02-26T00:17:11;9.60;99.90
22996;DHT22;11664;49.774;8.650;2024-02-26T00:19:43;9.70;99.90
22996;DHT22;11664;49.774;8.650;2024-02-26T00:22:11;9.70;99.90
22996;DHT22;11664;49.774;8.650;2024-02-26T00:24:36;9.70;99.90
22996;DHT22;11664;49.774;8.650;2024-02-26T00:27:02;9.80;99.90
22996;DHT22;11664;49.774;8.650;2024-02-26T00:29:28;9.80;99.90
22996;DHT22;11664;49.774;8.650;2024-02-26T00:31:57;9.70;99.90
22996;DHT22;11664;49.774;8.650;2024-02-26T00:34:26;9.80;99.90
22996;DHT22;11664;49.774;8.650;2024-02-26T00:36:51;9.80;99.90
22996;DHT22;11664;49.774;8.650;2024-02-26T00:39:19;9.80;99.90
22996;DHT22;11664;49.774;8.650;2024-02-26T00:41:48;9.80;99.90
22996;DHT22;11664;49.774;8.650;2024-02-26T00:44:13;9.80;99.90
22996;DHT22;11664;49.774;8.650;2024-02-26T00:46:45;9.80;99.90
22996;DHT22;11664;49.774;8.650;2024-02-26T00:49:14;9.90;99.90
22996;DHT22;11664;49.774;8.650;2024-02-26T00:51:45;9.90;99.90
22996;DHT22;11664;49.774;8.650;2024-02-26T00:54:11;9.80;99.90
22996;DHT22;11664;49.774;8.650;2024-02-26T00:56:36;9.70;99.90
22996;DHT22;11664;49.774;8.650;2024-02-26T00:59:02;9.70;99.90
22996;DHT22;11664;49.774;8.650;2024-02-26T01:01:27;9.60;99.90
22996;DHT22;11664;49.774;8.650;2024-02-26T01:03:53;9.50;99.90
22996;DHT22;11664;49.774;8.650;2024-02-26T01:06:21;9.50;99.90
22996;DHT22;11664;49.774;8.650;2024-02-26T01:08:53;9.60;99.90
22996;DHT22;11664;49.774;8.650;2024-02-26T01:11:34;9.60;99.90
22996;DHT22;11664;49.774;8.650;2024-02-26T01:14:06;9.60;99.90
22996;DHT22;11664;49.774;8.650;2024-02-26T01:16:41;9.50;99.90
22996;DHT22;11664;49.774;8.650;2024-02-26T01:19:06;9.60;99.90
22996;DHT22;11664;49.774;8.650;2024-02-26T01:21:35;9.50;99.90
22996;DHT22;11664;49.774;8.650;2024-02-26T01:24:06;9.50;99.90
22996;DHT22;11664;49.774;8.650;2024-02-26T01:26:32;9.50;99.90
22996;DHT22;11664;49.774;8.650;2024-02-26T01:29:01;9.40;99.90
22996;DHT22;11664;49.774;8.650;2024-02-26T01:31:26;9.30;99.90
22996;DHT22;11664;49.774;8.650;2024-02-26T01:33:52;9.30;99.90
22996;DHT22;11664;49.774;8.650;2024-02-26T01:36:18;9.30;99.90
22996;DHT22;11664;49.774;8.650;2024-02-26T01:38:43;9.30;99.90
22996;DHT22;11664;49.774;8.650;2024-02-26T01:41:15;9.30;99.90
22996;DHT22;11664;49.774;8.650;2024-02-26T01:43:43;9.30;99.90
22996;DHT22;11664;49.774;8.650;2024-02-26T01:46:25;9.20;99.90
22996;DHT22;11664;49.774;8.650;2024-02-26T01:48:50;9.10;99.90
22996;DHT22;11664;49.774;8.650;2024-02-26T01:51:22;9.00;99.90
22996;DHT22;11664;49.774;8.650;2024-02-26T01:53:48;8.90;99.90
22996;DHT22;11664;49.774;8.650;2024-02-26T01:56:14;8.90;99.90
22996;DHT22;11664;49.774;8.650;2024-02-26T01:58:51;8.80;99.90
22996;DHT22;11664;49.774;8.650;2024-02-26T02:01:18;8.70;99.90
22996;DHT22;11664;49.774;8.650;2024-02-26T02:03:44;8.70;99.90
22996;DHT22;11664;49.774;8.650;2024-02-26T02:06:10;8.60;99.90
22996;DHT22;11664;49.774;8.650;2024-02-26T02:08:40;8.50;99.90
22996;DHT22;11664;49.774;8.650;2024-02-26T02:11:09;8.50;99.90
22996;DHT22;11664;49.774;8.650;2024-02-26T02:13:42;8.40;99.90
22996;DHT22;11664;49.774;8.650;2024-02-26T02:16:08;8.40;99.90
22996;DHT22;11664;49.774;8.650;2024-02-26T02:18:39;8.30;99.90
22996;DHT22;11664;49.774;8.650;2024-02-26T02:21:05;8.40;99.90
22996;DHT22;11664;49.774;8.650;2024-02-26T02:23:30;8.30;99.90
22996;DHT22;11664;49.774;8.650;2024-02-26T02:25:57;8.30;99.90
22996;DHT22;11664;49.774;8.650;2024-02-26T02:28:24;8.30;99.90
22996;DHT22;11664;49.774;8.650;2024-02-26T02:30:54;8.30;99.90
22996;DHT22;11664;49.774;8.650;2024-02-26T02:33:25;8.20;99.90
22996;DHT22;11664;49.774;8.650;2024-02-26T02:35:51;8.20;99.90
22996;DHT22;11664;49.774;8.650;2024-02-26T02:38:19;8.20;99.90
22996;DHT22;11664;49.774;8.650;2024-02-26T02:40:45;8.20;99.90
22996;DHT22;11664;49.774;8.650;2024-02-26T02:43:14;8.10;99.90
22996;DHT22;11664;49.774;8.650;2024-02-26T02:45:42;8.10;99.90
22996;DHT22;11664;49.774;8.650;2024-02-26T02:48:09;8.20;99.90
22996;DHT22;11664;49.774;8.650;2024-02-26T02:50:39;8.10;99.90
22996;DHT22;11664;49.774;8.650;2024-02-26T02:53:11;8.20;99.90
22996;DHT22;11664;49.774;8.650;2024-02-26T02:55:37;8.20;99.90
22996;DHT22;11664;49.774;8.650;2024-02-26T02:58:08;8.20;99.90
22996;DHT22;11664;49.774;8.650;2024-02-26T03:00:34;8.10;99.90
22996;DHT22;11664;49.774;8.650;2024-02-26T03:03:03;8.20;99.90
22996;DHT22;11664;49.774;8.650;2024-02-26T03:05:29;8.20;99.90
22996;DHT22;11664;49.774;8.650;2024-02-26T03:07:54;8.10;99.90
22996;DHT22;11664;49.774;8.650;2024-02-26T03:10:20;8.10;99.90
22996;DHT22;11664;49.774;8.650;2024-02-26T03:12:49;8.10;99.90
22996;DHT22;11664;49.774;8.650;2024-02-26T03:15:21;8.10;99.90
22996;DHT22;11664;49.774;8.650;2024-02-26T03:17:49;8.00;99.90
22996;DHT22;11664;49.774;8.650;2024-02-26T03:20:18;8.00;99.90
22996;DHT22;11664;49.774;8.650;2024-02-26T03:22:44;8.00;99.90
22996;DHT22;11664;49.774;8.650;2024-02-26T03:25:13;7.90;99.90
22996;DHT22;11664;49.774;8.650;2024-02-26T03:27:42;7.90;99.90
22996;DHT22;11664;49.774;8.650;2024-02-26T03:30:20;7.90;99.90
22996;DHT22;11664;49.774;8.650;2024-02-26T03:32:45;7.80;99.90
22996;DHT22;11664;49.774;8.650;2024-02-26T03:35:12;7.80;99.90
22996;DHT22;11664;49.774;8.650;2024-02-26T03:37:41;7.70;99.90
22996;DHT22;11664;49.774;8.650;2024-02-26T03:40:07;7.60;99.90
22996;DHT22;11664;49.774;8.650;2024-02-26T03:42:39;7.50;99.90
22996;DHT22;11664;49.774;8.650;2024-02-26T03:45:16;7.40;99.90
22996;DHT22;11664;49.774;8.650;2024-02-26T03:47:42;7.50;99.90
22996;DHT22;11664;49.774;8.650;2024-02-26T03:50:08;7.50;99.90
22996;DHT22;11664;49.774;8.650;2024-02-26T03:52:36;7.50;99.90
22996;DHT22;11664;49.774;8.650;2024-02-26T03:55:04;7.50;99.90
22996;DHT22;11664;49.774;8.650;2024-02-26T03:57:30;7.40;99.90
22996;DHT22;11664;49.774;8.650;2024-02-26T03:59:56;7.40;99.90
22996;DHT22;11664;49.774;8.650;2024-02-26T04:02:21;7.30;99.90
22996;DHT22;11664;49.774;8.650;2024-02-26T04:04:48;7.30;99.90
22996;DHT22;11664;49.774;8.650;2024-02-26T04:07:26;7.30;99.90
22996;DHT22;11664;49.774;8.650;2024-02-26T04:10:11;7.20;99.90
22996;DHT22;11664;49.774;8.650;2024-02-26T04:12:42;7.20;99.90
22996;DHT22;11664;49.774;8.650;2024-02-26T04:15:18;7.10;99.90
22996;DHT22;11664;49.774;8.650;2024-02-26T04:17:43;7.10;99.90
22996;DHT22;11664;49.774;8.650;2024-02-26T04:20:14;7.00;99.90
22996;DHT22;11664;49.774;8.650;2024-02-26T04:22:41;7.00;99.90
22996;DHT22;11664;49.774;8.650;2024-02-26T04:25:25;6.90;99.90
22996;DHT22;11664;49.774;8.650;2024-02-26T04:27:53;7.00;99.90
22996;DHT22;11664;49.774;8.650;2024-02-26T04:30:28;7.00;99.90
22996;DHT22;11664;49.774;8.650;2024-02-26T04:32:54;7.00;99.90
22996;DHT22;11664;49.774;8.650;2024-02-26T04:35:19;7.00;99.90
22996;DHT22;11664;49.774;8.650;2024-02-26T04:37:48;7.00;99.90
22996;DHT22;11664;49.774;8.650;2024-02-26T04:40:14;7.10;99.90
22996;DHT22;11664;49.774;8.650;2024-02-26T04:42:45;7.20;99.90
22996;DHT22;11664;49.774;8.650;2024-02-26T04:45:17;7.20;99.90
22996;DHT22;11664;49.774;8.650;2024-02-26T04:47:43;7.20;99.90
22996;DHT22;11664;49.774;8.650;2024-02-26T04:50:10;7.20;99.90
22996;DHT22;11664;49.774;8.650;2024-02-26T04:52:36;7.10;99.90
22996;DHT22;11664;49.774;8.650;2024-02-26T04:55:05;7.20;99.90
22996;DHT22;11664;49.774;8.650;2024-02-26T04:57:31;7.20;99.90
22996;DHT22;11664;49.774;8.650;2024-02-26T04:59:56;7.20;99.90
22996;DHT22;11664;49.774;8.650;2024-02-26T05:02:28;7.20;99.90
22996;DHT22;11664;49.774;8.650;2024-02-26T05:04:59;7.20;99.90
22996;DHT22;11664;49.774;8.650;2024-02-26T05:07:32;7.30;99.90
22996;DHT22;11664;49.774;8.650;2024-02-26T05:10:00;7.30;99.90
22996;DHT22;11664;49.774;8.650;2024-02-26T05:12:28;7.30;99.90
22996;DHT22;11664;49.774;8.650;2024-02-26T05:14:54;7.30;99.90
22996;DHT22;11664;49.774;8.650;2024-02-26T05:17:25;7.30;99.90
22996;DHT22;11664;49.774;8.650;2024-02-26T05:19:53;7.30;99.90
22996;DHT22;11664;49.774;8.650;2024-02-26T05:22:19;7.30;99.90
22996;DHT22;11664;49.774;8.650;2024-02-26T05:24:47;7.40;99.90
22996;DHT22;11664;49.774;8.650;2024-02-26T05:27:13;7.50;99.90
22996;DHT22;11664;49.774;8.650;2024-02-26T05:29:41;7.60;99.90
22996;DHT22;11664;49.774;8.650;2024-02-26T05:32:10;7.60;99.90
22996;DHT22;11664;49.774;8.650;2024-02-26T05:34:35;7.70;99.90
22996;DHT22;11664;49.774;8.650;2024-02-26T05:37:01;7.70;99.90
22996;DHT22;11664;49.774;8.650;2024-02-26T05:39:26;7.60;99.90
22996;DHT22;11664;49.774;8.650;2024-02-26T05:41:52;7.70;99.90
22996;DHT22;11664;49.774;8.650;2024-02-26T05:44:26;7.60;99.90
22996;DHT22;11664;49.774;8.650;2024-02-26T05:46:58;7.50;99.90
22996;DHT22;11664;49.774;8.650;2024-02-26T05:49:26;7.60;99.90
22996;DHT22;11664;49.774;8.650;2024-02-26T05:51:55;7.60;99.90
22996;DHT22;11664;49.774;8.650;2024-02-26T05:54:36;7.60;99.90
22996;DHT22;11664;49.774;8.650;2024-02-26T05:57:01;7.60;99.90
22996;DHT22;11664;49.774;8.650;2024-02-26T05:59:30;7.60;99.90
22996;DHT22;11664;49.774;8.650;2024-02-26T06:02:02;7.70;99.90
22996;DHT22;11664;49.774;8.650;2024-02-26T06:04:31;7.60;99.90
22996;DHT22;11664;49.774;8.650;2024-02-26T06:07:11;7.60;99.90
22996;DHT22;11664;49.774;8.650;2024-02-26T06:09:37;7.60;99.90
22996;DHT22;11664;49.774;8.650;2024-02-26T06:12:09;7.60;99.90
22996;DHT22;11664;49.774;8.650;2024-02-26T06:14:43;7.50;99.90
22996;DHT22;11664;49.774;8.650;2024-02-26T06:17:15;7.60;99.90
22996;DHT22;11664;49.774;8.650;2024-02-26T06:19:44;7.50;99.90
22996;DHT22;11664;49.774;8.650;2024-02-26T06:22:13;7.60;99.90
22996;DHT22;11664;49.774;8.650;2024-02-26T06:24:41;7.50;99.90
22996;DHT22;11664;49.774;8.650;2024-02-26T06:27:10;7.50;99.90
22996;DHT22;11664;49.774;8.650;2024-02-26T06:29:35;7.50;99.90
22996;DHT22;11664;49.774;8.650;2024-02-26T06:32:01;7.50;99.90
22996;DHT22;11664;49.774;8.650;2024-02-26T06:34:26;7.60;99.90
22996;DHT22;11664;49.774;8.650;2024-02-26T06:36:55;7.60;99.90
22996;DHT22;11664;49.774;8.650;2024-02-26T06:39:23;7.50;99.90
22996;DHT22;11664;49.774;8.650;2024-02-26T06:41:49;7.60;99.90
22996;DHT22;11664;49.774;8.650;2024-02-26T06:44:14;7.70;99.90
22996;DHT22;11664;49.774;8.650;2024-02-26T06:46:40;7.70;99.90
22996;DHT22;11664;49.774;8.650;2024-02-26T06:49:05;7.70;99.90
22996;DHT22;11664;49.774;8.650;2024-02-26T06:51:31;7.60;99.90
22996;DHT22;11664;49.774;8.650;2024-02-26T06:53:56;7.70;99.90
22996;DHT22;11664;49.774;8.650;2024-02-26T06:56:22;7.70;99.90
22996;DHT22;11664;49.774;8.650;2024-02-26T06:58:47;7.70;99.90
22996;DHT22;11664;49.774;8.650;2024-02-26T07:01:13;7.80;99.90
22996;DHT22;11664;49.774;8.650;2024-02-26T07:03:42;7.80;99.90
22996;DHT22;11664;49.774;8.650;2024-02-26T07:06:33;7.80;99.90
22996;DHT22;11664;49.774;8.650;2024-02-26T07:08:58;7.80;99.90
22996;DHT22;11664;49.774;8.650;2024-02-26T07:11:24;7.90;99.90
22996;DHT22;11664;49.774;8.650;2024-02-26T07:13:50;7.90;99.90
22996;DHT22;11664;49.774;8.650;2024-02-26T07:16:15;7.90;99.90
22996;DHT22;11664;49.774;8.650;2024-02-26T07:18:41;8.00;99.90
22996;DHT22;11664;49.774;8.650;2024-02-26T07:21:09;8.00;99.90
22996;DHT22;11664;49.774;8.650;2024-02-26T07:23:35;8.00;99.90
22996;DHT22;11664;49.774;8.650;2024-02-26T07:26:00;8.00;99.90
22996;DHT22;11664;49.774;8.650;2024-02-26T07:28:26;8.00;99.90
22996;DHT22;11664;49.774;8.650;2024-02-26T07:30:52;8.00;99.90
22996;DHT22;11664;49.774;8.650;2024-02-26T07:33:18;8.00;99.90
22996;DHT22;11664;49.774;8.650;2024-02-26T07:35:43;8.00;99.90
22996;DHT22;11664;49.774;8.650;2024-02-26T07:38:09;8.00;99.90
22996;DHT22;11664;49.774;8.650;2024-02-26T07:40:34;8.00;99.90
22996;DHT22;11664;49.774;8.650;2024-02-26T07:43:00;8.10;99.90
22996;DHT22;11664;49.774;8.650;2024-02-26T07:45:26;8.10;99.90
22996;DHT22;11664;49.774;8.650;2024-02-26T07:47:51;8.10;99.90
22996;DHT22;11664;49.774;8.650;2024-02-26T07:50:17;8.20;99.90
22996;DHT22;11664;49.774;8.650;2024-02-26T07:52:43;8.20;99.90
22996;DHT22;11664;49.774;8.650;2024-02-26T07:55:10;8.20;99.90
22996;DHT22;11664;49.774;8.650;2024-02-26T07:57:44;8.20;99.90
22996;DHT22;11664;49.774;8.650;2024-02-26T08:00:19;8.20;99.90
22996;DHT22;11664;49.774;8.650;2024-02-26T08:02:48;8.20;99.90
22996;DHT22;11664;49.774;8.650;2024-02-26T08:05:17;8.30;99.90
22996;DHT22;11664;49.774;8.650;2024-02-26T08:07:45;8.30;99.90
22996;DHT22;11664;49.774;8.650;2024-02-26T08:10:17;8.30;99.90
22996;DHT22;11664;49.774;8.650;2024-02-26T08:12:43;8.30;99.90
22996;DHT22;11664;49.774;8.650;2024-02-26T08:15:20;8.30;99.90
22996;DHT22;11664;49.774;8.650;2024-02-26T08:17:46;8.40;99.90
22996;DHT22;11664;49.774;8.650;2024-02-26T08:20:31;8.40;99.90
22996;DHT22;11664;49.774;8.650;2024-02-26T08:23:03;8.40;99.90
22996;DHT22;11664;49.774;8.650;2024-02-26T08:25:31;8.40;99.90
22996;DHT22;11664;49.774;8.650;2024-02-26T08:28:00;8.30;99.90
22996;DHT22;11664;49.774;8.650;2024-02-26T08:30:27;8.40;99.90
22996;DHT22;11664;49.774;8.650;2024-02-26T08:32:52;8.50;99.90
22996;DHT22;11664;49.774;8.650;2024-02-26T08:35:24;8.50;99.90
22996;DHT22;11664;49.774;8.650;2024-02-26T08:37:59;8.60;99.90
22996;DHT22;11664;49.774;8.650;2024-02-26T08:40:24;8.60;99.90
22996;DHT22;11664;49.774;8.650;2024-02-26T08:42:56;8.70;99.90
22996;DHT22;11664;49.774;8.650;2024-02-26T08:45:27;8.70;99.90
22996;DHT22;11664;49.774;8.650;2024-02-26T08:47:53;8.80;99.90
22996;DHT22;11664;49.774;8.650;2024-02-26T08:50:18;8.70;99.90
22996;DHT22;11664;49.774;8.650;2024-02-26T08:52:56;8.80;99.90
22996;DHT22;11664;49.774;8.650;2024-02-26T08:55:22;8.80;99.90
22996;DHT22;11664;49.774;8.650;2024-02-26T08:57:47;8.90;99.90
22996;DHT22;11664;49.774;8.650;2024-02-26T09:00:13;9.00;99.90
22996;DHT22;11664;49.774;8.650;2024-02-26T09:02:41;9.10;99.90
22996;DHT22;11664;49.774;8.650;2024-02-26T09:05:15;9.00;99.90
22996;DHT22;11664;49.774;8.650;2024-02-26T09:07:41;9.20;99.90
22996;DHT22;11664;49.774;8.650;2024-02-26T09:10:07;9.30;99.90
22996;DHT22;11664;49.774;8.650;2024-02-26T09:12:38;9.20;99.90
22996;DHT22;11664;49.774;8.650;2024-02-26T09:15:06;9.30;99.90
22996;DHT22;11664;49.774;8.650;2024-02-26T09:17:31;9.40;99.90
22996;DHT22;11664;49.774;8.650;2024-02-26T09:19:57;9.50;99.90
22996;DHT22;11664;49.774;8.650;2024-02-26T09:22:22;9.50;99.90
22996;DHT22;11664;49.774;8.650;2024-02-26T09:24:48;9.50;99.90
22996;DHT22;11664;49.774;8.650;2024-02-26T09:27:15;9.40;99.90
22996;DHT22;11664;49.774;8.650;2024-02-26T09:29:42;9.50;99.90
22996;DHT22;11664;49.774;8.650;2024-02-26T09:32:07;9.40;99.90
22996;DHT22;11664;49.774;8.650;2024-02-26T09:34:33;9.20;99.90
22996;DHT22;11664;49.774;8.650;2024-02-26T09:36:59;9.30;99.90
22996;DHT22;11664;49.774;8.650;2024-02-26T09:39:25;9.20;99.90
22996;DHT22;11664;49.774;8.650;2024-02-26T09:41:51;9.30;99.90
22996;DHT22;11664;49.774;8.650;2024-02-26T09:44:20;9.50;99.90
22996;DHT22;11664;49.774;8.650;2024-02-26T09:46:47;9.60;99.90
22996;DHT22;11664;49.774;8.650;2024-02-26T09:49:15;9.70;99.90
22996;DHT22;11664;49.774;8.650;2024-02-26T09:51:41;9.90;99.90
22996;DHT22;11664;49.774;8.650;2024-02-26T09:54:13;10.20;99.90
22996;DHT22;11664;49.774;8.650;2024-02-26T09:56:39;10.30;99.90
22996;DHT22;11664;49.774;8.650;2024-02-26T09:59:10;10.30;99.90
22996;DHT22;11664;49.774;8.650;2024-02-26T10:01:39;10.50;99.90
22996;DHT22;11664;49.774;8.650;2024-02-26T10:04:06;10.50;99.90
22996;DHT22;11664;49.774;8.650;2024-02-26T10:06:34;10.50;99.90
22996;DHT22;11664;49.774;8.650;2024-02-26T10:09:01;10.60;99.90
22996;DHT22;11664;49.774;8.650;2024-02-26T10:11:30;10.70;99.90
22996;DHT22;11664;49.774;8.650;2024-02-26T10:13:55;11.00;99.90
22996;DHT22;11664;49.774;8.650;2024-02-26T10:16:21;11.20;99.90
22996;DHT22;11664;49.774;8.650;2024-02-26T10:18:51;11.20;99.90
22996;DHT22;11664;49.774;8.650;2024-02-26T10:21:17;10.90;99.90
22996;DHT22;11664;49.774;8.650;2024-02-26T10:23:45;10.80;99.90
22996;DHT22;11664;49.774;8.650;2024-02-26T10:26:12;10.90;99.90
22996;DHT22;11664;49.774;8.650;2024-02-26T10:28:39;11.00;99.90
22996;DHT22;11664;49.774;8.650;2024-02-26T10:31:04;11.30;99.90
22996;DHT22;11664;49.774;8.650;2024-02-26T10:33:31;11.50;99.90
22996;DHT22;11664;49.774;8.650;2024-02-26T10:35:58;11.60;99.90
22996;DHT22;11664;49.774;8.650;2024-02-26T10:38:24;11.40;99.90
22996;DHT22;11664;49.774;8.650;2024-02-26T10:40:49;11.30;99.90
22996;DHT22;11664;49.774;8.650;2024-02-26T10:43:15;11.50;99.90
22996;DHT22;11664;49.774;8.650;2024-02-26T10:45:43;11.40;99.90
22996;DHT22;11664;49.774;8.650;2024-02-26T10:48:13;11.50;99.90
22996;DHT22;11664;49.774;8.650;2024-02-26T10:50:40;11.50;99.90
22996;DHT22;11664;49.774;8.650;2024-02-26T10:53:15;11.60;99.90
22996;DHT22;11664;49.774;8.650;2024-02-26T10:55:42;11.80;99.90
22996;DHT22;11664;49.774;8.650;2024-02-26T10:58:10;11.80;99.90
22996;DHT22;11664;49.774;8.650;2024-02-26T11:00:38;11.60;99.90
22996;DHT22;11664;49.774;8.650;2024-02-26T11:03:05;11.90;99.90
22996;DHT22;11664;49.774;8.650;2024-02-26T11:05:33;11.80;99.90
22996;DHT22;11664;49.774;8.650;2024-02-26T11:08:00;11.90;99.90
22996;DHT22;11664;49.774;8.650;2024-02-26T11:10:27;12.20;99.90
22996;DHT22;11664;49.774;8.650;2024-02-26T11:12:55;12.20;99.90
22996;DHT22;11664;49.774;8.650;2024-02-26T11:15:21;12.20;99.90
22996;DHT22;11664;49.774;8.650;2024-02-26T11:17:47;12.30;99.90
22996;DHT22;11664;49.774;8.650;2024-02-26T11:20:14;12.50;99.90
22996;DHT22;11664;49.774;8.650;2024-02-26T11:22:40;12.60;99.90
22996;DHT22;11664;49.774;8.650;2024-02-26T11:25:06;12.60;99.90
22996;DHT22;11664;49.774;8.650;2024-02-26T11:27:43;12.70;99.90
22996;DHT22;11664;49.774;8.650;2024-02-26T11:30:11;12.70;99.90
22996;DHT22;11664;49.774;8.650;2024-02-26T11:32:38;12.80;99.90
22996;DHT22;11664;49.774;8.650;2024-02-26T11:35:05;12.70;99.90
22996;DHT22;11664;49.774;8.650;2024-02-26T11:37:31;12.50;99.90
22996;DHT22;11664;49.774;8.650;2024-02-26T11:39:59;12.90;99.90
22996;DHT22;11664;49.774;8.650;2024-02-26T11:42:25;13.00;99.90
22996;DHT22;11664;49.774;8.650;2024-02-26T11:44:51;12.60;99.90
22996;DHT22;11664;49.774;8.650;2024-02-26T11:47:22;12.50;99.90
22996;DHT22;11664;49.774;8.650;2024-02-26T11:49:48;12.80;99.90
22996;DHT22;11664;49.774;8.650;2024-02-26T11:52:15;12.90;99.90
22996;DHT22;11664;49.774;8.650;2024-02-26T11:54:56;12.70;99.90
22996;DHT22;11664;49.774;8.650;2024-02-26T11:59:56;12.60;99.90
22996;DHT22;11664;49.774;8.650;2024-02-26T12:02:57;12.60;99.90
22996;DHT22;11664;49.774;8.650;2024-02-26T12:05:24;12.50;99.90
22996;DHT22;11664;49.774;8.650;2024-02-26T12:07:53;12.60;99.90
22996;DHT22;11664;49.774;8.650;2024-02-26T12:10:25;12.70;99.90
22996;DHT22;11664;49.774;8.650;2024-02-26T12:12:59;12.80;99.90
22996;DHT22;11664;49.774;8.650;2024-02-26T12:15:30;12.80;99.90
22996;DHT22;11664;49.774;8.650;2024-02-26T12:17:58;12.70;99.90
22996;DHT22;11664;49.774;8.650;2024-02-26T12:20:23;12.70;99.90
22996;DHT22;11664;49.774;8.650;2024-02-26T12:22:50;12.80;99.90
22996;DHT22;11664;49.774;8.650;2024-02-26T12:25:21;13.10;99.90
22996;DHT22;11664;49.774;8.650;2024-02-26T12:27:47;13.10;99.90
22996;DHT22;11664;49.774;8.650;2024-02-26T12:30:13;13.00;99.90
22996;DHT22;11664;49.774;8.650;2024-02-26T12:32:39;13.10;99.90
22996;DHT22;11664;49.774;8.650;2024-02-26T12:35:05;13.10;99.90
22996;DHT22;11664;49.774;8.650;2024-02-26T12:37:32;12.90;99.90
22996;DHT22;11664;49.774;8.650;2024-02-26T12:39:57;12.90;99.90
22996;DHT22;11664;49.774;8.650;2024-02-26T12:42:23;12.90;99.90
22996;DHT22;11664;49.774;8.650;2024-02-26T12:44:50;12.90;99.90
22996;DHT22;11664;49.774;8.650;2024-02-26T12:47:17;13.00;99.90
22996;DHT22;11664;49.774;8.650;2024-02-26T12:49:47;13.00;99.90
22996;DHT22;11664;49.774;8.650;2024-02-26T12:52:13;13.10;99.90
22996;DHT22;11664;49.774;8.650;2024-02-26T12:54:38;13.20;99.90
22996;DHT22;11664;49.774;8.650;2024-02-26T12:57:05;13.60;99.90
22996;DHT22;11664;49.774;8.650;2024-02-26T12:59:32;13.50;99.90
22996;DHT22;11664;49.774;8.650;2024-02-26T13:01:58;13.60;99.90
22996;DHT22;11664;49.774;8.650;2024-02-26T13:04:25;13.80;99.90
22996;DHT22;11664;49.774;8.650;2024-02-26T13:06:51;13.80;99.90
22996;DHT22;11664;49.774;8.650;2024-02-26T13:09:16;13.60;99.90
22996;DHT22;11664;49.774;8.650;2024-02-26T13:11:44;13.30;99.90
22996;DHT22;11664;49.774;8.650;2024-02-26T13:14:22;13.10;99.90
22996;DHT22;11664;49.774;8.650;2024-02-26T13:16:55;13.10;99.90
22996;DHT22;11664;49.774;8.650;2024-02-26T13:19:21;12.80;99.90
22996;DHT22;11664;49.774;8.650;2024-02-26T13:21:46;12.80;99.90
22996;DHT22;11664;49.774;8.650;2024-02-26T13:24:15;12.90;99.90
22996;DHT22;11664;49.774;8.650;2024-02-26T13:26:41;13.10;99.90
22996;DHT22;11664;49.774;8.650;2024-02-26T13:29:07;13.60;99.90
22996;DHT22;11664;49.774;8.650;2024-02-26T13:31:39;14.20;99.90
22996;DHT22;11664;49.774;8.650;2024-02-26T13:34:05;15.00;99.90
22996;DHT22;11664;49.774;8.650;2024-02-26T13:36:30;15.40;99.90
22996;DHT22;11664;49.774;8.650;2024-02-26T13:38:56;14.70;99.90
22996;DHT22;11664;49.774;8.650;2024-02-26T13:41:22;15.20;99.90
22996;DHT22;11664;49.774;8.650;2024-02-26T13:43:48;17.00;99.90
22996;DHT22;11664;49.774;8.650;2024-02-26T13:46:14;18.00;99.90
22996;DHT22;11664;49.774;8.650;2024-02-26T13:48:41;18.10;99.90
22996;DHT22;11664;49.774;8.650;2024-02-26T13:51:07;18.00;99.90
22996;DHT22;11664;49.774;8.650;2024-02-26T13:53:32;18.60;99.90
22996;DHT22;11664;49.774;8.650;2024-02-26T13:55:58;18.60;99.90
22996;DHT22;11664;49.774;8.650;2024-02-26T13:58:26;16.10;99.90
22996;DHT22;11664;49.774;8.650;2024-02-26T14:00:52;14.40;99.90
22996;DHT22;11664;49.774;8.650;2024-02-26T14:03:19;13.70;99.90
22996;DHT22;11664;49.774;8.650;2024-02-26T14:05:45;13.30;99.90
22996;DHT22;11664;49.774;8.650;2024-02-26T14:08:10;12.90;99.90
22996;DHT22;11664;49.774;8.650;2024-02-26T14:10:36;12.60;99.90
22996;DHT22;11664;49.774;8.650;2024-02-26T14:13:03;12.60;99.90
22996;DHT22;11664;49.774;8.650;2024-02-26T14:15:28;12.50;99.90
22996;DHT22;11664;49.774;8.650;2024-02-26T14:17:55;12.50;99.90
22996;DHT22;11664;49.774;8.650;2024-02-26T14:20:23;12.60;99.90
22996;DHT22;11664;49.774;8.650;2024-02-26T14:22:52;12.80;99.90
22996;DHT22;11664;49.774;8.650;2024-02-26T14:25:19;13.10;99.90
22996;DHT22;11664;49.774;8.650;2024-02-26T14:27:47;14.10;99.90
22996;DHT22;11664;49.774;8.650;2024-02-26T14:30:12;14.70;99.90
22996;DHT22;11664;49.774;8.650;2024-02-26T14:32:38;14.20;99.90
22996;DHT22;11664;49.774;8.650;2024-02-26T14:35:06;13.60;99.90
22996;DHT22;11664;49.774;8.650;2024-02-26T14:37:32;13.00;99.90
22996;DHT22;11664;49.774;8.650;2024-02-26T14:39:58;13.00;99.90
22996;DHT22;11664;49.774;8.650;2024-02-26T14:42:24;13.10;99.90
22996;DHT22;11664;49.774;8.650;2024-02-26T14:44:50;12.90;99.90
22996;DHT22;11664;49.774;8.650;2024-02-26T14:47:16;13.10;99.90
22996;DHT22;11664;49.774;8.650;2024-02-26T14:49:42;13.20;99.90
22996;DHT22;11664;49.774;8.650;2024-02-26T14:52:08;13.20;99.90
22996;DHT22;11664;49.774;8.650;2024-02-26T14:54:33;13.10;99.90
22996;DHT22;11664;49.774;8.650;2024-02-26T14:57:03;13.50;99.90
22996;DHT22;11664;49.774;8.650;2024-02-26T14:59:30;14.10;99.90
22996;DHT22;11664;49.774;8.650;2024-02-26T15:01:56;15.90;99.90
22996;DHT22;11664;49.774;8.650;2024-02-26T15:04:22;15.90;99.90
22996;DHT22;11664;49.774;8.650;2024-02-26T15:06:47;17.20;99.90
22996;DHT22;11664;49.774;8.650;2024-02-26T15:09:13;18.40;99.90
22996;DHT22;11664;49.774;8.650;2024-02-26T15:11:39;18.20;99.90
22996;DHT22;11664;49.774;8.650;2024-02-26T15:14:06;17.00;99.90
22996;DHT22;11664;49.774;8.650;2024-02-26T15:16:32;17.20;99.90
22996;DHT22;11664;49.774;8.650;2024-02-26T15:18:57;16.80;99.90
22996;DHT22;11664;49.774;8.650;2024-02-26T15:21:23;15.80;99.90
22996;DHT22;11664;49.774;8.650;2024-02-26T15:23:49;14.60;99.90
22996;DHT22;11664;49.774;8.650;2024-02-26T15:26:17;14.10;99.90
22996;DHT22;11664;49.774;8.650;2024-02-26T15:28:42;13.60;99.90
22996;DHT22;11664;49.774;8.650;2024-02-26T15:31:08;13.20;99.90
22996;DHT22;11664;49.774;8.650;2024-02-26T15:33:33;13.20;99.90
22996;DHT22;11664;49.774;8.650;2024-02-26T15:35:59;14.00;99.90
22996;DHT22;11664;49.774;8.650;2024-02-26T15:38:25;13.80;99.90
22996;DHT22;11664;49.774;8.650;2024-02-26T15:40:50;13.40;99.90
22996;DHT22;11664;49.774;8.650;2024-02-26T15:43:16;14.20;99.90
22996;DHT22;11664;49.774;8.650;2024-02-26T15:45:42;14.30;99.90
22996;DHT22;11664;49.774;8.650;2024-02-26T15:48:07;15.30;99.90